Time;durP1;ratioP1;P1;durP2;ratioP2;P2;SDS_P1;SDS_P2;PMS_P1;PMS_P2;Temp;Humidity;BMP_temperature;BMP_pressure;BME280_temperature;BME280_humidity;BME280_pressure;Samples;Min_cycle;Max_cycle;Signal;HPM_P1;HPM_P2
2021/09/02 00:00:00;;;;;;;25.42;9.18;;;;;;;20.15;61.65;102285.47;4860580;28;119995;-75
2021/09/02 00:02:25;;;;;;;25.38;8.75;;;;;;;20.09;61.29;102281.03;4844965;28;121549;-75
2021/09/02 00:04:51;;;;;;;26.35;9.85;;;;;;;20.04;61.52;102282.47;4845317;28;121301;-74
2021/09/02 00:07:22;;;;;;;26.67;9.77;;;;;;;20.06;61.30;102284.78;4819889;28;120452;-75
2021/09/02 00:09:48;;;;;;;23.08;8.63;;;;;;;20.05;61.90;102280.44;4860668;28;119656;-75
2021/09/02 00:12:13;;;;;;;25.50;9.13;;;;;;;20.07;61.85;102278.72;4862479;28;129541;-75
2021/09/02 00:14:39;;;;;;;23.17;9.27;;;;;;;20.08;61.39;102274.69;4847547;28;121335;-74
2021/09/02 00:17:08;;;;;;;26.27;9.60;;;;;;;20.12;61.71;102280.09;4841647;28;121959;-77
2021/09/02 00:19:35;;;;;;;32.63;9.27;;;;;;;20.11;61.56;102275.75;4847453;28;120226;-76
2021/09/02 00:22:02;;;;;;;22.52;8.27;;;;;;;20.11;61.04;102272.94;4834883;28;123854;-75
2021/09/02 00:24:28;;;;;;;24.45;9.23;;;;;;;20.11;61.55;102278.53;4843709;28;120211;-75
2021/09/02 00:26:54;;;;;;;21.00;8.77;;;;;;;20.10;61.86;102277.75;4849336;28;120191;-75
2021/09/02 00:29:19;;;;;;;24.38;9.60;;;;;;;20.09;61.73;102278.22;4844653;28;120395;-77
2021/09/02 00:31:45;;;;;;;23.83;9.02;;;;;;;20.10;61.78;102271.41;4840979;28;120832;-74
2021/09/02 00:34:10;;;;;;;22.77;9.32;;;;;;;20.12;61.77;102269.72;4840213;28;120721;-74
2021/09/02 00:36:36;;;;;;;28.33;9.38;;;;;;;20.12;61.90;102274.53;4834692;28;120332;-75
2021/09/02 00:39:02;;;;;;;26.35;9.27;;;;;;;20.12;61.76;102274.53;4826751;28;123098;-76
2021/09/02 00:41:28;;;;;;;25.98;9.52;;;;;;;20.08;61.46;102276.69;4831979;28;120347;-76
2021/09/02 00:43:53;;;;;;;24.95;8.93;;;;;;;19.99;61.51;102274.78;4843714;28;120164;-74
2021/09/02 00:46:19;;;;;;;32.75;9.30;;;;;;;20.01;61.59;102277.09;4826743;28;122057;-74
2021/09/02 00:48:46;;;;;;;27.45;9.20;;;;;;;19.98;62.24;102281.59;4846079;28;119886;-74
2021/09/02 00:51:14;;;;;;;25.65;9.20;;;;;;;20.01;61.72;102283.44;4843984;28;121136;-73
2021/09/02 00:53:40;;;;;;;23.70;7.85;;;;;;;20.01;61.87;102291.78;4845399;28;119998;-76
2021/09/02 00:56:06;;;;;;;23.77;8.70;;;;;;;19.99;61.33;102285.16;4850361;28;120216;-75
2021/09/02 00:58:32;;;;;;;26.05;8.60;;;;;;;19.98;61.74;102281.59;4848967;28;121088;-73
2021/09/02 01:00:57;;;;;;;23.80;8.63;;;;;;;19.97;61.50;102282.84;4826407;28;120712;-74
2021/09/02 01:03:23;;;;;;;27.13;9.55;;;;;;;19.96;61.66;102294.47;4832368;28;121402;-75
2021/09/02 01:05:51;;;;;;;25.58;9.10;;;;;;;19.90;61.24;102289.56;4850127;28;120241;-75
2021/09/02 01:08:18;;;;;;;23.65;9.20;;;;;;;19.89;61.66;102290.81;4846765;28;121666;-77
2021/09/02 01:10:48;;;;;;;23.38;9.65;;;;;;;19.93;61.82;102290.63;4852061;28;120449;-74
2021/09/02 01:13:14;;;;;;;26.48;9.20;;;;;;;19.92;61.57;102294.66;4846130;28;120226;-78
2021/09/02 01:15:40;;;;;;;21.27;9.05;;;;;;;19.88;61.29;102294.06;4834839;28;122283;-74
2021/09/02 01:18:05;;;;;;;25.83;9.23;;;;;;;19.81;60.73;102294.41;4848837;28;122880;-74
2021/09/02 01:20:31;;;;;;;27.90;8.57;;;;;;;19.78;61.39;102292.59;4851153;28;121769;-74
2021/09/02 01:23:02;;;;;;;23.95;8.68;;;;;;;19.78;61.69;102298.16;4825669;28;121552;-75
2021/09/02 01:25:31;;;;;;;20.98;9.05;;;;;;;19.78;61.57;102287.03;4854503;28;120339;-78
2021/09/02 01:28:05;;;;;;;24.63;9.05;;;;;;;19.76;61.66;102290.28;4810936;28;122337;-74
2021/09/02 01:30:39;;;;;;;22.70;8.52;;;;;;;19.74;61.63;102289.22;4846852;28;119637;-74
2021/09/02 01:33:10;;;;;;;24.90;8.93;;;;;;;19.77;61.25;102297.38;4828685;28;120494;-74
2021/09/02 01:35:36;;;;;;;20.98;8.48;;;;;;;19.72;61.10;102286.16;4846240;28;120688;-74
2021/09/02 01:38:07;;;;;;;21.85;8.98;;;;;;;19.73;61.65;102299.59;4840874;28;120561;-74
2021/09/02 01:40:36;;;;;;;27.10;9.25;;;;;;;19.74;61.77;102283.66;4844908;28;121442;-75
2021/09/02 01:43:04;;;;;;;25.20;9.43;;;;;;;19.77;61.48;102288.25;4842961;28;120822;-77
2021/09/02 01:45:30;;;;;;;27.85;9.25;;;;;;;19.79;61.41;102291.34;4840833;28;120517;-74
2021/09/02 01:47:58;;;;;;;25.20;9.05;;;;;;;19.78;61.58;102289.81;4845439;28;120458;-75
2021/09/02 01:50:27;;;;;;;24.58;9.10;;;;;;;19.80;61.32;102290.09;4842725;28;120606;-74
2021/09/02 01:52:59;;;;;;;23.15;8.90;;;;;;;19.69;61.13;102276.72;4843843;28;120393;-74
2021/09/02 01:55:26;;;;;;;18.92;8.35;;;;;;;19.78;61.20;102292.59;4861305;28;121873;-76
2021/09/02 01:57:55;;;;;;;26.05;9.52;;;;;;;19.80;61.10;102292.88;4859932;28;120022;-74
2021/09/02 02:00:21;;;;;;;28.83;9.90;;;;;;;19.80;61.39;102292.88;4846888;28;120517;-74
2021/09/02 02:02:47;;;;;;;24.27;9.13;;;;;;;19.76;60.45;102289.50;4839538;28;120054;-77
2021/09/02 02:05:14;;;;;;;22.02;9.50;;;;;;;19.72;61.12;102292.47;4838783;28;120380;-77
2021/09/02 02:07:40;;;;;;;24.65;9.35;;;;;;;19.73;61.38;102294.03;4842859;28;120692;-74
2021/09/02 02:10:09;;;;;;;27.98;9.80;;;;;;;19.76;61.68;102297.88;4846075;28;124150;-74
2021/09/02 02:12:35;;;;;;;23.33;9.20;;;;;;;19.73;61.38;102288.44;4846888;28;120640;-73
2021/09/02 02:15:03;;;;;;;20.55;9.55;;;;;;;19.74;61.30;102284.41;4838967;28;120515;-76
2021/09/02 02:17:31;;;;;;;26.73;9.43;;;;;;;19.77;61.52;102293.84;4859255;28;120336;-73
2021/09/02 02:19:57;;;;;;;29.05;9.45;;;;;;;19.76;60.67;102301.41;4840651;28;121766;-74
2021/09/02 02:22:23;;;;;;;24.38;9.82;;;;;;;19.71;60.59;102282.59;4847093;28;119822;-74
2021/09/02 02:24:48;;;;;;;24.77;9.82;;;;;;;19.65;61.53;102295.63;4853143;28;120698;-75
2021/09/02 02:27:14;;;;;;;26.42;10.27;;;;;;;19.69;61.62;102295.44;4848541;28;119349;-76
2021/09/02 02:29:42;;;;;;;28.05;10.20;;;;;;;19.69;60.68;102307.34;4822140;28;120354;-74
2021/09/02 02:32:08;;;;;;;25.70;10.45;;;;;;;19.67;60.82;102303.50;4851314;28;121213;-75
2021/09/02 02:34:33;;;;;;;18.33;9.55;;;;;;;19.63;61.02;102295.31;4843535;28;120999;-73
2021/09/02 02:37:03;;;;;;;24.77;9.27;;;;;;;19.66;60.59;102304.75;4846600;28;120354;-76
2021/09/02 02:39:28;;;;;;;26.27;10.00;;;;;;;19.65;61.01;102294.88;4861160;28;120084;-77
2021/09/02 02:41:54;;;;;;;23.60;9.25;;;;;;;19.62;60.74;102291.75;4846783;28;120387;-74
2021/09/02 02:44:22;;;;;;;23.13;9.73;;;;;;;19.63;61.24;102289.75;4821200;28;125288;-75
2021/09/02 02:46:48;;;;;;;23.08;8.65;;;;;;;19.67;61.65;102300.72;4840362;28;121473;-76
2021/09/02 02:49:14;;;;;;;21.95;9.15;;;;;;;19.70;61.18;102294.22;4824064;28;122225;-75
2021/09/02 02:51:39;;;;;;;23.10;9.55;;;;;;;19.71;60.60;102292.97;4839407;28;120368;-75
2021/09/02 02:54:05;;;;;;;27.05;10.38;;;;;;;19.68;60.96;102296.69;4848828;28;120353;-77
2021/09/02 02:56:30;;;;;;;24.27;9.50;;;;;;;19.68;61.18;102291.13;4840944;28;120171;-73
2021/09/02 02:58:56;;;;;;;25.83;9.27;;;;;;;19.57;59.94;102281.28;4842271;28;121221;-74
2021/09/02 03:01:22;;;;;;;18.75;9.40;;;;;;;19.65;60.31;102289.31;4840505;28;123348;-74
2021/09/02 03:03:47;;;;;;;17.80;9.15;;;;;;;19.66;60.89;102290.84;4839856;28;120358;-77
2021/09/02 03:06:13;;;;;;;21.73;9.10;;;;;;;19.65;60.48;102286.50;4839064;28;121763;-74
2021/09/02 03:08:39;;;;;;;22.35;9.18;;;;;;;19.65;60.35;102283.72;4838375;28;120005;-73
2021/09/02 03:11:05;;;;;;;25.58;9.88;;;;;;;19.67;60.43;102287.56;4833218;28;121160;-74
2021/09/02 03:13:31;;;;;;;22.88;9.50;;;;;;;19.66;60.41;102288.06;4839708;28;120449;-75
2021/09/02 03:15:57;;;;;;;25.05;9.48;;;;;;;19.67;60.05;102300.72;4824986;28;119923;-73
2021/09/02 03:18:23;;;;;;;22.58;9.05;;;;;;;19.67;60.03;102301.50;4843468;28;120734;-78
2021/09/02 03:20:48;;;;;;;26.15;9.75;;;;;;;19.66;60.12;102299.19;4834777;28;121412;-75
2021/09/02 03:23:14;;;;;;;18.63;8.88;;;;;;;19.65;60.67;102304.00;4835170;28;121457;-76
2021/09/02 03:25:39;;;;;;;22.98;9.50;;;;;;;19.65;60.43;102292.84;4839439;28;119852;-76
2021/09/02 03:28:05;;;;;;;19.88;8.85;;;;;;;19.66;60.52;102299.97;4834393;28;120772;-75
2021/09/02 03:30:31;;;;;;;21.92;10.10;;;;;;;19.68;60.67;102303.03;4840738;28;119964;-74
2021/09/02 03:32:56;;;;;;;25.02;9.40;;;;;;;19.70;60.85;102310.91;4841389;28;119921;-77
2021/09/02 03:35:22;;;;;;;21.48;9.27;;;;;;;19.71;60.75;102306.88;4842676;28;120271;-74
2021/09/02 03:37:48;;;;;;;22.13;8.35;;;;;;;19.68;60.32;102302.25;4821979;28;119828;-74
2021/09/02 03:40:13;;;;;;;25.58;9.50;;;;;;;19.69;60.52;102298.22;4837004;28;122319;-74
2021/09/02 03:42:39;;;;;;;20.77;8.88;;;;;;;19.69;60.22;102295.44;4846628;28;119804;-74
2021/09/02 03:45:07;;;;;;;23.33;9.25;;;;;;;19.66;60.29;102282.47;4840447;28;120666;-76
2021/09/02 03:47:33;;;;;;;19.73;8.98;;;;;;;19.63;59.22;102286.97;4841335;28;121865;-76
2021/09/02 03:49:59;;;;;;;21.65;8.40;;;;;;;19.60;59.39;102285.91;4842715;28;119931;-77
2021/09/02 03:52:25;;;;;;;16.02;8.30;;;;;;;19.59;59.34;102289.94;4841252;28;120118;-74
2021/09/02 03:54:50;;;;;;;21.67;8.60;;;;;;;19.56;59.11;102288.09;4837138;28;123205;-74
2021/09/02 03:57:16;;;;;;;22.65;8.40;;;;;;;19.50;58.99;102287.19;4843825;28;121650;-75
2021/09/02 03:59:41;;;;;;;22.98;8.85;;;;;;;19.39;59.24;102283.38;4836838;28;121230;-77
2021/09/02 04:02:07;;;;;;;21.83;9.05;;;;;;;19.40;59.93;102282.16;4843206;28;119774;-74
2021/09/02 04:04:33;;;;;;;19.17;8.88;;;;;;;19.44;60.14;102291.09;4841540;28;120088;-73
2021/09/02 04:06:58;;;;;;;19.45;9.13;;;;;;;19.47;60.19;102302.06;4838174;28;120356;-76
2021/09/02 04:09:26;;;;;;;22.00;8.93;;;;;;;19.47;60.03;102295.72;4841836;28;120552;-75
2021/09/02 04:11:52;;;;;;;25.67;9.25;;;;;;;19.48;60.18;102297.25;4838071;28;120442;-74
2021/09/02 04:14:18;;;;;;;22.70;9.48;;;;;;;19.52;60.72;102308.97;4842113;28;126069;-75
2021/09/02 04:16:43;;;;;;;19.70;8.57;;;;;;;19.45;60.71;102292.66;4825012;28;120211;-74
2021/09/02 04:19:09;;;;;;;20.52;9.10;;;;;;;19.53;60.27;102299.38;4842274;28;120959;-74
2021/09/02 04:21:37;;;;;;;20.33;8.63;;;;;;;19.51;60.18;102294.28;4842225;28;120838;-75
2021/09/02 04:24:03;;;;;;;24.00;9.10;;;;;;;19.53;60.52;102304.97;4843849;28;119877;-75
2021/09/02 04:26:28;;;;;;;20.58;9.52;;;;;;;19.55;60.52;102302.50;4842433;28;120246;-76
2021/09/02 04:28:54;;;;;;;28.05;9.55;;;;;;;19.54;60.45;102304.50;4841560;28;119936;-74
2021/09/02 04:31:19;;;;;;;19.50;8.82;;;;;;;19.53;60.44;102304.97;4839974;28;120400;-74
2021/09/02 04:33:45;;;;;;;21.15;8.52;;;;;;;19.52;60.20;102298.63;4843774;28;120268;-75
2021/09/02 04:36:14;;;;;;;20.20;9.30;;;;;;;19.51;60.40;102301.88;4842185;28;123100;-75
2021/09/02 04:38:39;;;;;;;19.30;8.35;;;;;;;19.49;60.20;102305.13;4842083;28;120468;-75
2021/09/02 04:41:05;;;;;;;26.23;9.20;;;;;;;19.46;59.86;102302.53;4854977;28;120880;-78
2021/09/02 04:43:30;;;;;;;21.42;8.23;;;;;;;19.41;59.75;102309.53;4842084;28;119790;-74
2021/09/02 04:45:59;;;;;;;25.52;9.82;;;;;;;19.32;59.54;102295.66;4837315;28;123021;-73
2021/09/02 04:48:24;;;;;;;28.40;9.73;;;;;;;19.33;60.04;102300.72;4846667;28;121644;-74
2021/09/02 04:50:51;;;;;;;21.02;9.25;;;;;;;19.33;60.10;102303.53;4840500;28;120318;-74
2021/09/02 04:53:18;;;;;;;20.15;8.38;;;;;;;19.33;60.00;102300.72;4837728;28;119732;-74
2021/09/02 04:55:43;;;;;;;17.92;8.65;;;;;;;19.33;59.67;102306.31;4837758;28;121384;-77
2021/09/02 04:58:10;;;;;;;23.08;9.50;;;;;;;19.32;60.27;102304.75;4845310;28;120643;-75
2021/09/02 05:00:38;;;;;;;18.67;8.52;;;;;;;19.33;60.45;102311.09;4848131;28;120311;-76
2021/09/02 05:03:04;;;;;;;24.17;9.18;;;;;;;19.33;60.11;102313.88;4837437;28;120032;-74
2021/09/02 05:05:30;;;;;;;21.73;9.00;;;;;;;19.33;60.09;102316.66;4844149;28;120764;-76
2021/09/02 05:07:56;;;;;;;22.83;9.57;;;;;;;19.32;59.46;102313.13;4840673;28;120617;-76
2021/09/02 05:10:23;;;;;;;21.80;9.27;;;;;;;19.32;59.72;102320.69;4843105;28;122708;-74
2021/09/02 05:12:49;;;;;;;23.80;9.15;;;;;;;19.31;59.99;102313.59;4845274;28;120323;-74
2021/09/02 05:15:15;;;;;;;23.05;9.32;;;;;;;19.33;59.73;102323.00;4846356;28;121886;-73
2021/09/02 05:17:41;;;;;;;24.00;9.73;;;;;;;19.31;59.32;102333.81;4845392;28;119805;-74
2021/09/02 05:20:07;;;;;;;24.48;9.27;;;;;;;19.28;59.41;102334.00;4840457;28;120311;-77
2021/09/02 05:22:33;;;;;;;24.17;9.13;;;;;;;19.27;59.55;102329.69;4833508;28;120172;-76
2021/09/02 05:24:59;;;;;;;26.42;9.20;;;;;;;19.24;59.85;102331.41;4847607;28;120299;-77
2021/09/02 05:27:24;;;;;;;24.25;9.27;;;;;;;19.27;59.56;102336.03;4851183;28;119552;-76
2021/09/02 05:29:50;;;;;;;29.23;9.48;;;;;;;19.28;59.68;102339.56;4850757;28;120133;-75
2021/09/02 05:32:15;;;;;;;19.98;8.77;;;;;;;19.26;59.29;102342.81;4848294;28;119861;-75
2021/09/02 05:34:41;;;;;;;23.83;8.88;;;;;;;19.20;59.62;102341.16;4852110;28;119843;-76
2021/09/02 05:37:07;;;;;;;21.92;8.98;;;;;;;19.20;59.30;102343.94;4852066;28;120382;-74
2021/09/02 05:39:32;;;;;;;23.33;9.48;;;;;;;19.16;59.22;102343.31;4839210;28;119885;-74
2021/09/02 05:41:58;;;;;;;22.10;8.95;;;;;;;19.16;59.75;102351.66;4846563;28;121472;-76
2021/09/02 05:44:24;;;;;;;20.48;9.30;;;;;;;19.19;60.52;102350.75;4848457;28;120453;-73
2021/09/02 05:46:50;;;;;;;18.27;8.88;;;;;;;19.21;59.91;102356.63;4847799;28;119779;-76
2021/09/02 05:49:16;;;;;;;21.20;9.45;;;;;;;19.21;60.10;102348.28;4847565;28;119785;-75
2021/09/02 05:51:42;;;;;;;21.77;8.95;;;;;;;19.25;60.37;102354.44;4848927;28;121665;-77
2021/09/02 05:54:08;;;;;;;27.25;11.27;;;;;;;19.23;60.04;102357.69;4843551;28;120195;-75
2021/09/02 05:56:34;;;;;;;25.35;10.45;;;;;;;19.24;60.42;102359.22;4851048;28;124219;-76
2021/09/02 05:59:00;;;;;;;20.77;10.10;;;;;;;19.25;60.47;102363.53;4825728;28;120261;-73
2021/09/02 06:01:25;;;;;;;27.55;12.20;;;;;;;19.27;59.88;102365.84;4845408;28;120024;-73
2021/09/02 06:03:51;;;;;;;24.73;11.48;;;;;;;19.24;59.69;102364.78;4844575;28;119868;-74
2021/09/02 06:06:17;;;;;;;29.30;10.90;;;;;;;19.25;59.77;102365.56;4868900;28;121370;-77
2021/09/02 06:08:42;;;;;;;22.65;10.73;;;;;;;19.27;60.14;102363.06;4847879;28;119902;-77
2021/09/02 06:11:08;;;;;;;21.80;11.20;;;;;;;19.28;59.79;102364.63;4847797;28;120364;-74
2021/09/02 06:13:34;;;;;;;21.80;11.68;;;;;;;19.27;59.93;102369.41;4828335;28;121476;-74
2021/09/02 06:16:01;;;;;;;27.10;11.48;;;;;;;19.29;60.01;102371.72;4847662;28;119766;-74
2021/09/02 06:18:28;;;;;;;23.45;11.10;;;;;;;19.31;60.10;102364.44;4833163;28;119929;-78
2021/09/02 06:20:57;;;;;;;23.77;9.98;;;;;;;19.36;60.24;102359.47;4851115;28;120149;-74
2021/09/02 06:23:22;;;;;;;23.13;10.02;;;;;;;19.39;60.22;102352.94;4819094;28;121095;-74
2021/09/02 06:25:48;;;;;;;20.40;10.55;;;;;;;19.46;60.43;102353.41;4845097;28;121676;-74
2021/09/02 06:28:14;;;;;;;19.50;9.82;;;;;;;19.48;59.93;102344.56;4851550;28;120701;-74
2021/09/02 06:30:39;;;;;;;25.98;10.82;;;;;;;19.56;59.98;102351.34;4847906;28;120269;-77
2021/09/02 06:33:05;;;;;;;23.63;10.25;;;;;;;19.59;59.80;102345.59;4847888;28;120408;-75
2021/09/02 06:35:31;;;;;;;20.27;10.65;;;;;;;19.61;59.58;102347.91;4844901;28;120174;-74
2021/09/02 06:37:56;;;;;;;25.42;10.00;;;;;;;19.69;59.31;102348.34;4842354;28;120440;-74
2021/09/02 06:40:22;;;;;;;23.52;10.63;;;;;;;19.73;59.99;102360.06;4858741;28;120346;-74
2021/09/02 06:42:48;;;;;;;24.70;10.13;;;;;;;19.73;59.15;102346.16;4840042;28;119797;-75
2021/09/02 06:45:14;;;;;;;20.70;9.88;;;;;;;19.79;59.25;102355.38;4837609;28;120165;-75
2021/09/02 06:47:40;;;;;;;28.83;10.45;;;;;;;19.82;59.42;102357.22;4846758;28;119992;-77
2021/09/02 06:50:08;;;;;;;23.33;10.20;;;;;;;19.84;60.08;102349.16;4836745;28;120749;-77
2021/09/02 06:52:34;;;;;;;25.15;10.20;;;;;;;19.87;59.83;102359.34;4844324;28;120310;-77
2021/09/02 06:55:00;;;;;;;22.75;9.95;;;;;;;19.92;59.59;102365.03;4838224;28;120426;-75
2021/09/02 06:57:25;;;;;;;22.83;9.63;;;;;;;19.96;59.95;102362.06;4839267;28;120643;-74
2021/09/02 06:59:51;;;;;;;19.50;9.88;;;;;;;19.97;59.36;102360.84;4839453;28;120010;-73
2021/09/02 07:02:17;;;;;;;27.50;9.70;;;;;;;20.01;59.56;102369.00;4834680;28;120673;-79
2021/09/02 07:04:42;;;;;;;23.13;9.32;;;;;;;20.04;59.64;102374.38;4831359;28;121332;-76
2021/09/02 07:07:08;;;;;;;23.10;9.68;;;;;;;20.04;59.33;102368.81;4841025;28;119965;-74
2021/09/02 07:09:33;;;;;;;25.45;10.27;;;;;;;20.10;59.33;102371.72;4838161;28;120939;-74
2021/09/02 07:12:01;;;;;;;21.02;9.63;;;;;;;20.13;59.25;102376.34;4838720;28;120084;-77
2021/09/02 07:14:27;;;;;;;22.95;9.88;;;;;;;20.14;59.01;102370.31;4838175;28;120696;-78
2021/09/02 07:16:52;;;;;;;23.33;9.23;;;;;;;20.18;59.44;102373.66;4839417;28;120034;-74
2021/09/02 07:19:18;;;;;;;22.02;9.23;;;;;;;20.22;58.96;102376.25;4838486;28;120623;-75
2021/09/02 07:21:43;;;;;;;20.25;8.85;;;;;;;20.27;58.93;102381.16;4842515;28;121065;-74
2021/09/02 07:24:09;;;;;;;24.65;9.75;;;;;;;20.27;59.02;102380.41;4840818;28;120400;-76
2021/09/02 07:26:36;;;;;;;19.33;9.43;;;;;;;20.27;59.13;102374.81;4823161;28;120703;-74
2021/09/02 07:29:03;;;;;;;22.60;9.32;;;;;;;20.30;58.90;102380.22;4839119;28;121287;-75
2021/09/02 07:31:28;;;;;;;22.98;10.05;;;;;;;20.34;58.99;102380.03;4844179;28;121464;-75
2021/09/02 07:33:54;;;;;;;25.95;9.98;;;;;;;20.31;59.11;102369.84;4839858;28;121747;-76
2021/09/02 07:36:20;;;;;;;24.63;9.18;;;;;;;20.40;59.30;102392.06;4841956;28;120662;-77
2021/09/02 07:38:48;;;;;;;23.58;9.50;;;;;;;20.41;59.01;102385.28;4824542;28;120110;-76
2021/09/02 07:41:14;;;;;;;24.45;9.00;;;;;;;20.45;59.39;102386.63;4841940;28;120082;-74
2021/09/02 07:43:40;;;;;;;23.17;9.52;;;;;;;20.50;58.90;102385.19;4843238;28;121306;-74
2021/09/02 07:46:05;;;;;;;27.88;9.85;;;;;;;20.54;58.68;102389.31;4839406;28;121014;-74
2021/09/02 07:48:31;;;;;;;19.60;9.75;;;;;;;20.53;58.99;102378.66;4836369;28;120316;-75
2021/09/02 07:50:58;;;;;;;17.95;9.15;;;;;;;20.64;58.96;102387.22;4822849;28;121192;-74
2021/09/02 07:53:25;;;;;;;21.88;9.52;;;;;;;20.65;58.40;102382.41;4836509;28;120554;-75
2021/09/02 07:55:50;;;;;;;20.40;8.95;;;;;;;20.69;58.70;102391.34;4838809;28;120895;-78
2021/09/02 07:58:18;;;;;;;22.33;9.60;;;;;;;20.73;58.89;102391.94;4834469;28;122596;-73
2021/09/02 08:00:44;;;;;;;23.52;9.30;;;;;;;20.76;58.57;102393.75;4839250;28;126724;-75
2021/09/02 08:03:10;;;;;;;23.27;9.45;;;;;;;20.75;58.10;102395.78;4820766;28;120804;-75
2021/09/02 08:05:36;;;;;;;19.38;8.80;;;;;;;20.79;58.29;102404.72;4806245;28;121383;-79
2021/09/02 08:08:01;;;;;;;18.45;9.00;;;;;;;20.87;58.58;102401.56;4831550;28;120928;-75
2021/09/02 08:10:28;;;;;;;22.85;9.30;;;;;;;20.90;58.34;102415.31;4838639;28;121331;-74
2021/09/02 08:12:54;;;;;;;18.10;9.40;;;;;;;20.93;57.97;102414.34;4823037;28;121293;-74
2021/09/02 08:15:22;;;;;;;18.00;7.70;;;;;;;20.97;57.96;102420.50;4836474;28;121555;-77
2021/09/02 08:17:50;;;;;;;16.70;8.30;;;;;;;21.00;58.02;102424.34;4835336;28;121077;-76
2021/09/02 08:20:17;;;;;;;18.60;9.02;;;;;;;20.99;58.00;102428.38;4834560;28;120888;-74
2021/09/02 08:22:44;;;;;;;19.50;9.05;;;;;;;21.02;57.49;102428.19;4813933;28;123656;-76
2021/09/02 08:25:11;;;;;;;24.23;9.20;;;;;;;21.03;57.82;102437.31;4825524;28;122318;-77
2021/09/02 08:27:37;;;;;;;18.23;8.60;;;;;;;21.01;57.64;102420.28;4830557;28;124523;-74
2021/09/02 08:30:04;;;;;;;21.08;8.75;;;;;;;21.08;58.06;102425.50;4821664;28;122216;-75
2021/09/02 08:32:29;;;;;;;18.67;8.45;;;;;;;21.07;57.28;102435.91;4834298;28;121797;-75
2021/09/02 08:34:55;;;;;;;20.08;8.93;;;;;;;21.09;57.51;102438.97;4835171;28;123818;-75
2021/09/02 08:37:20;;;;;;;24.13;9.25;;;;;;;21.13;56.75;102436.00;4833661;28;121629;-80
2021/09/02 08:39:46;;;;;;;16.73;8.77;;;;;;;21.08;57.14;102431.09;4837752;28;122600;-78
2021/09/02 08:42:15;;;;;;;20.60;8.88;;;;;;;21.14;57.43;102445.91;4833554;28;121736;-74
2021/09/02 08:44:42;;;;;;;20.50;8.73;;;;;;;21.12;56.69;102438.00;4854430;28;122041;-74
2021/09/02 08:47:10;;;;;;;21.50;9.73;;;;;;;21.15;58.07;102436.28;4831000;28;128366;-75
2021/09/02 08:49:36;;;;;;;19.73;8.65;;;;;;;21.20;58.04;102438.38;4842396;28;122147;-74
2021/09/02 08:52:02;;;;;;;20.15;8.52;;;;;;;21.20;58.15;102435.59;4840026;28;120970;-76
2021/09/02 08:54:31;;;;;;;21.15;8.90;;;;;;;21.25;57.12;102439.75;4833956;28;121884;-76
2021/09/02 08:56:57;;;;;;;21.58;8.73;;;;;;;21.26;57.13;102444.06;4825179;28;122414;-77
2021/09/02 08:59:23;;;;;;;16.20;8.80;;;;;;;21.28;57.90;102436.00;4839638;28;121647;-77
2021/09/02 09:01:49;;;;;;;18.55;8.38;;;;;;;21.30;57.25;102442.66;4836673;28;121808;-75
2021/09/02 09:04:16;;;;;;;17.55;8.65;;;;;;;21.33;57.78;102441.69;4836698;28;122770;-77
2021/09/02 09:06:42;;;;;;;15.27;8.13;;;;;;;21.36;57.45;102445.53;4846090;28;121677;-74
2021/09/02 09:09:16;;;;;;;18.17;8.25;;;;;;;21.39;57.98;102450.91;4820603;28;121414;-75
2021/09/02 09:11:51;;;;;;;15.07;8.40;;;;;;;21.39;57.01;102450.91;4837896;28;121490;-75
2021/09/02 09:14:19;;;;;;;20.08;9.20;;;;;;;21.43;58.10;102459.06;4823040;28;120994;-75
2021/09/02 09:16:56;;;;;;;20.15;8.52;;;;;;;21.45;58.12;102459.38;4845779;28;122924;-74
2021/09/02 09:19:37;;;;;;;21.48;8.95;;;;;;;21.49;57.84;102456.38;4848073;28;122012;-77
2021/09/02 09:22:05;;;;;;;17.40;8.55;;;;;;;21.52;56.42;102452.59;4837660;28;122417;-75
2021/09/02 09:24:46;;;;;;;18.10;8.30;;;;;;;21.56;56.80;102445.59;4839838;28;122975;-75
2021/09/02 09:27:13;;;;;;;20.70;8.60;;;;;;;21.61;56.84;102446.91;4832489;28;121855;-75
2021/09/02 09:29:39;;;;;;;22.23;9.55;;;;;;;21.68;57.66;102452.84;4821663;28;124003;-75
2021/09/02 09:32:13;;;;;;;21.25;8.75;;;;;;;21.84;57.84;102440.41;4823548;28;122814;-76
2021/09/02 09:34:53;;;;;;;17.25;8.02;;;;;;;21.94;56.79;102450.19;4841030;28;123217;-76
2021/09/02 09:37:21;;;;;;;20.77;8.40;;;;;;;21.97;56.76;102443.59;4840916;28;123679;-74
2021/09/02 09:39:48;;;;;;;22.73;9.07;;;;;;;22.01;56.88;102455.38;4837401;28;122443;-80
2021/09/02 09:42:17;;;;;;;18.00;8.15;;;;;;;22.03;55.67;102458.44;4843802;28;121401;-75
2021/09/02 09:44:42;;;;;;;20.48;8.80;;;;;;;21.99;55.69;102457.84;4814030;28;122010;-78
2021/09/02 09:47:12;;;;;;;14.05;7.97;;;;;;;22.03;56.29;102457.66;4846621;28;121878;-76
2021/09/02 09:49:58;;;;;;;18.23;7.95;;;;;;;22.03;54.87;102450.06;4842330;28;122047;-75
2021/09/02 09:52:31;;;;;;;13.70;7.70;;;;;;;22.04;56.61;102457.22;4840122;28;121388;-75
2021/09/02 09:55:07;;;;;;;17.88;8.38;;;;;;;22.00;56.17;102453.84;4844430;28;123067;-75
2021/09/02 09:57:34;;;;;;;16.27;8.23;;;;;;;22.06;56.48;102465.09;4817587;28;122925;-76
2021/09/02 10:00:06;;;;;;;17.92;8.23;;;;;;;22.09;56.93;102460.56;4831625;28;121553;-75
2021/09/02 10:02:40;;;;;;;19.17;8.07;;;;;;;22.14;57.09;102465.44;4842369;28;122316;-75
2021/09/02 10:05:08;;;;;;;21.33;9.05;;;;;;;22.18;55.39;102466.00;4843014;28;122167;-76
2021/09/02 10:07:35;;;;;;;15.88;8.45;;;;;;;22.20;55.72;102455.88;4841103;28;121748;-76
2021/09/02 10:10:03;;;;;;;17.10;8.25;;;;;;;22.23;55.42;102459.72;4838196;28;122969;-75
2021/09/02 10:12:34;;;;;;;18.08;8.88;;;;;;;22.24;55.62;102450.06;4840981;28;123775;-76
2021/09/02 10:15:08;;;;;;;15.25;8.70;;;;;;;22.28;55.81;102442.25;4817506;28;123243;-76
2021/09/02 10:17:34;;;;;;;;;;;;;;;22.29;55.62;102443.78;4841014;28;122126;-77
2021/09/02 10:20:09;;;;;;;18.05;9.02;;;;;;;22.29;56.07;102436.19;4821635;28;122253;-76
2021/09/02 10:22:35;;;;;;;16.83;9.07;;;;;;;22.33;56.12;102439.53;4825502;28;123727;-75
2021/09/02 10:25:01;;;;;;;17.10;8.35;;;;;;;22.41;56.45;102430.69;4845057;28;122477;-77
2021/09/02 10:27:26;;;;;;;17.45;8.52;;;;;;;22.45;56.53;102434.81;4849715;28;125657;-79
2021/09/02 10:29:53;;;;;;;20.05;9.15;;;;;;;22.46;56.56;102427.97;4844296;28;122889;-78
2021/09/02 10:32:22;;;;;;;23.42;8.85;;;;;;;22.46;54.60;102433.53;4843158;28;122646;-75
2021/09/02 10:34:48;;;;;;;16.65;7.93;;;;;;;22.42;54.88;102426.66;4823689;28;126563;-74
2021/09/02 10:37:36;;;;;;;15.77;8.18;;;;;;;22.45;55.89;102431.25;4838581;28;124192;-75
2021/09/02 10:40:05;;;;;;;18.42;8.88;;;;;;;22.47;55.41;102428.72;4834477;28;122165;-74
2021/09/02 10:42:44;;;;;;;14.98;7.95;;;;;;;22.44;56.17;102424.13;4843224;28;124891;-73
2021/09/02 10:45:25;;;;;;;17.13;8.63;;;;;;;22.50;54.73;102434.13;4844075;28;122403;-76
2021/09/02 10:47:59;;;;;;;19.65;8.68;;;;;;;22.50;54.42;102433.34;4839379;28;122323;-74
2021/09/02 10:50:27;;;;;;;;;;;;;;;22.50;55.06;102430.56;4844970;28;124234;-74
2021/09/02 10:52:54;;;;;;;16.30;8.82;;;;;;;22.52;55.11;102434.41;4841976;28;122446;-74
2021/09/02 10:55:34;;;;;;;16.50;8.57;;;;;;;22.57;56.06;102433.69;4836082;28;123059;-75
2021/09/02 10:58:02;;;;;;;17.83;8.48;;;;;;;22.61;55.33;102439.06;4854456;28;122564;-77
2021/09/02 11:00:32;;;;;;;16.83;8.30;;;;;;;22.66;55.49;102435.53;4840816;28;122965;-74
2021/09/02 11:03:15;;;;;;;18.00;8.20;;;;;;;22.76;55.58;102430.56;4833443;28;122808;-75
2021/09/02 11:05:42;;;;;;;23.45;9.35;;;;;;;22.81;55.29;102429.84;4829573;28;124411;-75
2021/09/02 11:08:09;;;;;;;20.80;8.80;;;;;;;22.85;54.90;102416.44;4836872;28;122328;-74